METAR Formatted Surface Weather Observation
Issued by NWS

Home | Current Version | Previous Version | Text Only | Print | Product List | Glossary On
Versions: 1 2 3 4 5 6 7 8 9 10 11 12 13 14 15 16 17 18 19 20 21 22 23 24 25 26 27 28 29 30 31 32 33 34 35 36
000
SAUS45 KTWC 250353
MTRSAD
METAR KSAD 250351Z AUTO 16018G27KT 10SM CLR 33/10 A2997 RMK AO2 PK
WND 16027/0351 SLP083 T03280100



USA.gov is the U.S. government's official web portal to all federal, state and local government web resources and services.